createdAt,value
2018-12-24T00:03:22.691Z,100.00
2018-12-24T00:05:52.998Z,100.00
2018-12-24T00:08:23.407Z,100.00
2018-12-24T00:10:53.754Z,100.00
2018-12-24T00:13:24.368Z,100.00
2018-12-24T00:15:54.796Z,100.00
2018-12-24T00:18:25.584Z,100.00
2018-12-24T00:21:08.122Z,100.00
2018-12-24T00:23:38.470Z,100.00
2018-12-24T00:26:10.233Z,100.00
2018-12-24T00:28:40.628Z,100.00
2018-12-24T00:31:11.362Z,100.00
2018-12-24T00:33:41.717Z,100.00
2018-12-24T00:44:34.330Z,100.00
2018-12-24T00:47:04.994Z,100.00
2018-12-24T00:49:35.374Z,100.00
2018-12-24T00:52:05.693Z,100.00
2018-12-24T00:54:36.075Z,100.00
2018-12-24T00:57:06.431Z,100.00
2018-12-24T01:02:18.815Z,100.00
2018-12-24T01:04:49.191Z,100.00
2018-12-24T01:07:19.619Z,100.00
2018-12-24T01:09:49.925Z,100.00
2018-12-24T01:12:24.484Z,100.00
2018-12-24T01:15:11.195Z,100.00
2018-12-24T01:21:03.185Z,100.00
2018-12-24T01:23:33.521Z,100.00
2018-12-24T01:26:15.110Z,100.00
2018-12-24T01:31:29.700Z,100.00
2018-12-24T01:37:21.614Z,100.00
2018-12-24T01:39:51.960Z,100.00
2018-12-24T01:42:33.222Z,100.00
2018-12-24T01:48:18.984Z,100.00
2018-12-24T01:51:27.267Z,100.00
2018-12-24T01:54:24.609Z,100.00
2018-12-24T01:56:56.253Z,100.00
2018-12-24T02:02:32.315Z,100.00
2018-12-24T02:05:02.735Z,100.00
2018-12-24T02:10:55.098Z,100.00
2018-12-24T02:13:26.893Z,100.00
2018-12-24T02:15:57.267Z,100.00
2018-12-24T02:21:59.971Z,100.00
2018-12-24T02:27:35.436Z,100.00
2018-12-24T02:33:07.878Z,100.00
2018-12-24T02:35:38.716Z,100.00
2018-12-24T02:44:32.962Z,100.00
2018-12-24T02:47:04.770Z,100.00
2018-12-24T02:58:11.876Z,100.00
2018-12-24T03:00:43.163Z,100.00
2018-12-24T03:06:27.175Z,100.00
2018-12-24T03:08:57.642Z,100.00
2018-12-24T03:14:30.326Z,100.00
2018-12-24T03:17:21.294Z,100.00
2018-12-24T03:19:51.712Z,100.00
2018-12-24T03:22:22.454Z,100.00
2018-12-24T03:25:11.852Z,100.00
2018-12-24T03:28:01.619Z,100.00
2018-12-24T03:30:32.125Z,100.00
2018-12-24T03:33:02.601Z,100.00
2018-12-24T03:35:45.165Z,100.00
2018-12-24T03:38:15.528Z,100.00
2018-12-24T03:40:45.945Z,100.00
2018-12-24T03:46:37.539Z,100.00
2018-12-24T03:49:22.754Z,100.00
2018-12-24T03:51:53.105Z,100.00
2018-12-24T03:54:42.555Z,100.00
2018-12-24T03:57:12.920Z,100.00
2018-12-24T03:59:43.262Z,100.00
2018-12-24T04:02:13.764Z,100.00
2018-12-24T04:04:44.113Z,100.00
2018-12-24T04:07:14.474Z,100.00
2018-12-24T04:09:44.862Z,100.00
2018-12-24T04:12:15.244Z,100.00
2018-12-24T04:14:45.609Z,100.00
2018-12-24T04:17:16.222Z,100.00
2018-12-24T04:19:46.656Z,100.00
2018-12-24T04:22:17.010Z,100.00
2018-12-24T04:24:47.403Z,100.00
2018-12-24T04:27:42.008Z,100.00
2018-12-24T04:30:15.763Z,100.00
2018-12-24T04:39:38.652Z,100.00
2018-12-24T04:45:09.395Z,100.00
2018-12-24T04:47:39.919Z,100.00
2018-12-24T04:52:59.179Z,100.00
2018-12-24T04:55:29.626Z,100.00
2018-12-24T05:07:07.131Z,100.00
2018-12-24T05:09:37.620Z,100.00
2018-12-24T05:12:07.957Z,100.00
2018-12-24T05:14:41.758Z,100.00
2018-12-24T05:17:12.127Z,100.00
2018-12-24T05:20:01.376Z,100.00
2018-12-24T05:31:28.586Z,100.00
2018-12-24T05:34:10.218Z,100.00
2018-12-24T05:37:01.029Z,100.00
2018-12-24T05:39:42.387Z,100.00
2018-12-24T05:42:12.889Z,100.00
2018-12-24T05:44:43.416Z,100.00
2018-12-24T05:47:34.416Z,100.00
2018-12-24T05:55:29.973Z,100.00
2018-12-24T05:58:20.910Z,100.00
2018-12-24T06:07:00.132Z,100.00
2018-12-24T06:09:30.762Z,100.00
2018-12-24T06:12:01.058Z,100.00
2018-12-24T06:14:50.560Z,100.00
2018-12-24T06:17:32.043Z,100.00
2018-12-24T06:20:23.087Z,100.00
2018-12-24T06:26:01.878Z,100.00
2018-12-24T06:28:32.304Z,100.00
2018-12-24T06:37:08.347Z,100.00
2018-12-24T06:42:23.164Z,100.00
2018-12-24T06:44:53.713Z,100.00
2018-12-24T06:50:10.296Z,100.00
2018-12-24T06:52:40.740Z,100.00
2018-12-24T06:55:11.184Z,100.00
2018-12-24T07:00:42.349Z,100.00
2018-12-24T07:03:12.711Z,100.00
2018-12-24T07:05:43.090Z,100.00
2018-12-24T07:08:13.410Z,100.00
2018-12-24T07:10:43.812Z,100.00
2018-12-24T07:13:16.259Z,100.00
2018-12-24T07:15:46.616Z,100.00
2018-12-24T07:18:22.364Z,100.00
2018-12-24T07:20:52.813Z,100.00
2018-12-24T07:24:02.869Z,100.00
2018-12-24T07:26:33.556Z,100.00
2018-12-24T07:29:15.912Z,100.00
2018-12-24T07:35:28.395Z,100.00
2018-12-24T07:40:44.202Z,100.00
2018-12-24T07:43:14.600Z,100.00
2018-12-24T07:45:44.975Z,100.00
2018-12-24T07:51:18.575Z,100.00
2018-12-24T07:57:03.819Z,100.00
2018-12-24T08:05:26.507Z,100.00
2018-12-24T08:10:40.091Z,100.00
2018-12-24T08:13:10.456Z,100.00
2018-12-24T08:15:40.920Z,100.00
2018-12-24T08:21:15.923Z,100.00
2018-12-24T08:23:46.301Z,100.00
2018-12-24T08:26:16.828Z,100.00
2018-12-24T08:28:47.658Z,100.00
2018-12-24T08:31:38.777Z,100.00
2018-12-24T08:34:11.355Z,100.00
2018-12-24T08:40:03.592Z,100.00
2018-12-24T08:42:53.121Z,100.00
2018-12-24T08:45:24.415Z,100.00
2018-12-24T08:48:13.868Z,100.00
2018-12-24T08:50:44.833Z,100.00
2018-12-24T08:53:15.304Z,100.00
2018-12-24T08:55:45.657Z,100.00
2018-12-24T08:58:16.278Z,100.00
2018-12-24T09:00:46.782Z,100.00
2018-12-24T09:03:22.226Z,100.00
2018-12-24T09:05:52.608Z,100.00
2018-12-24T09:08:42.067Z,100.00
2018-12-24T09:11:12.714Z,100.00
2018-12-24T09:13:43.106Z,100.00
2018-12-24T09:16:13.446Z,100.00
2018-12-24T09:18:44.177Z,100.00
2018-12-24T09:21:14.579Z,100.00
2018-12-24T09:23:45.129Z,100.00
2018-12-24T09:28:57.436Z,100.00
2018-12-24T09:31:27.829Z,100.00
2018-12-24T09:33:57.998Z,99.37
2018-12-24T09:36:48.957Z,100.00
2018-12-24T09:39:30.944Z,98.78
2018-12-24T09:42:01.435Z,100.00
2018-12-24T09:44:31.863Z,96.82
2018-12-24T09:47:02.369Z,96.17
2018-12-24T09:49:32.939Z,96.16
2018-12-24T09:52:22.469Z,97.12
2018-12-24T10:00:36.052Z,93.11
2018-12-24T10:03:32.771Z,92.18
2018-12-24T10:06:35.465Z,91.67
2018-12-24T10:12:30.662Z,90.95
2018-12-24T10:15:13.546Z,88.02
2018-12-24T10:17:43.967Z,89.18
2018-12-24T10:23:38.987Z,87.79
2018-12-24T10:26:09.330Z,86.96
2018-12-24T10:28:39.970Z,85.55
2018-12-24T10:34:51.205Z,82.32
2018-12-24T10:37:21.568Z,82.89
2018-12-24T10:39:51.971Z,78.29
2018-12-24T10:42:22.515Z,78.55
2018-12-24T10:44:53.124Z,79.09
2018-12-24T10:47:23.479Z,78.60
2018-12-24T10:49:53.885Z,76.50
2018-12-24T10:52:44.608Z,79.25
2018-12-24T10:55:34.329Z,76.51
2018-12-24T10:58:06.455Z,74.00
2018-12-24T11:00:37.907Z,76.51
2018-12-24T11:03:08.357Z,75.57
2018-12-24T11:05:38.800Z,77.09
2018-12-24T11:08:09.240Z,78.12
2018-12-24T11:10:58.683Z,78.41
2018-12-24T11:13:29.562Z,78.53
2018-12-24T11:16:00.076Z,75.38
2018-12-24T11:18:30.454Z,77.17
2018-12-24T11:21:00.933Z,76.45
2018-12-24T11:24:01.762Z,77.92
2018-12-24T11:26:32.131Z,74.88
2018-12-24T11:29:16.143Z,75.34
2018-12-24T11:31:46.536Z,76.52
2018-12-24T11:34:17.005Z,78.33
2018-12-24T11:36:47.492Z,78.72
2018-12-24T11:42:43.055Z,75.54
2018-12-24T11:45:13.690Z,76.80
2018-12-24T11:50:50.449Z,77.66
2018-12-24T11:53:20.930Z,77.58
2018-12-24T11:55:51.374Z,76.59
2018-12-24T11:58:32.898Z,77.16
2018-12-24T12:01:03.416Z,75.01
2018-12-24T12:03:34.262Z,75.55
2018-12-24T12:06:19.648Z,75.49
2018-12-24T12:08:47.541Z,76.11
2018-12-24T12:11:30.508Z,76.72
2018-12-24T12:16:55.575Z,75.05
2018-12-24T12:19:25.958Z,75.11
2018-12-24T12:21:56.625Z,73.70
2018-12-24T12:27:29.701Z,70.13
2018-12-24T12:30:20.546Z,68.73
2018-12-24T12:33:11.614Z,68.51
2018-12-24T12:38:38.277Z,64.03
2018-12-24T12:41:27.642Z,64.13
2018-12-24T12:44:09.196Z,64.68
2018-12-24T12:46:39.654Z,62.34
2018-12-24T12:49:10.107Z,60.61
2018-12-24T12:51:59.476Z,59.96
2018-12-24T12:54:48.797Z,61.49
2018-12-24T12:57:19.298Z,63.11
2018-12-24T12:59:49.652Z,64.01
2018-12-24T13:02:32.263Z,64.58
2018-12-24T13:08:16.688Z,65.59
2018-12-24T13:10:46.992Z,68.38
2018-12-24T13:13:17.486Z,69.40
2018-12-24T13:15:49.218Z,70.35
2018-12-24T13:18:40.186Z,70.60
2018-12-24T13:24:21.683Z,70.50
2018-12-24T13:26:52.124Z,72.88
2018-12-24T13:29:34.106Z,69.15
2018-12-24T13:32:04.583Z,70.58
2018-12-24T13:34:45.812Z,72.17
2018-12-24T13:39:57.805Z,72.76
2018-12-24T13:42:28.167Z,72.03
2018-12-24T13:50:25.316Z,74.68
2018-12-24T13:53:15.710Z,74.64
2018-12-24T13:56:06.820Z,75.60
2018-12-24T13:58:37.214Z,74.02
2018-12-24T14:01:10.374Z,75.38
2018-12-24T14:03:40.805Z,74.10
2018-12-24T14:06:11.121Z,73.39
2018-12-24T14:08:41.510Z,74.98
2018-12-24T14:11:11.895Z,74.05
2018-12-24T14:16:25.701Z,73.07
2018-12-24T14:21:56.629Z,74.55
2018-12-24T14:24:26.988Z,73.80
2018-12-24T14:30:00.321Z,75.65
2018-12-24T14:32:30.595Z,77.16
2018-12-24T14:35:01.039Z,74.79
2018-12-24T14:40:52.592Z,76.18
2018-12-24T14:43:23.216Z,75.21
2018-12-24T14:45:53.784Z,75.71
2018-12-24T14:51:30.065Z,76.60
2018-12-24T14:54:00.896Z,78.30
2018-12-24T14:56:31.444Z,77.53
2018-12-24T15:02:04.410Z,77.68
2018-12-24T15:04:34.826Z,77.73
2018-12-24T15:07:05.205Z,77.38
2018-12-24T15:09:35.600Z,79.69
2018-12-24T15:14:49.728Z,78.53
2018-12-24T15:17:20.295Z,78.53
2018-12-24T15:19:50.666Z,79.32
2018-12-24T15:22:41.607Z,79.08
2018-12-24T15:25:12.108Z,79.80
2018-12-24T15:27:42.602Z,79.45
2018-12-24T15:33:27.749Z,81.31
2018-12-24T15:35:58.130Z,81.61
2018-12-24T15:38:28.511Z,81.03
2018-12-24T15:40:58.962Z,80.90
2018-12-24T15:43:49.840Z,80.47
2018-12-24T15:46:20.325Z,80.50
2018-12-24T15:48:51.709Z,80.34
2018-12-24T15:54:43.392Z,81.10
2018-12-24T15:57:13.894Z,82.17
2018-12-24T15:59:44.221Z,81.92
2018-12-24T16:02:36.651Z,82.19
2018-12-24T16:05:07.023Z,81.93
2018-12-24T16:07:37.362Z,82.36
2018-12-24T16:10:07.630Z,82.80
2018-12-24T16:12:57.029Z,83.38
2018-12-24T16:15:27.818Z,81.97
2018-12-24T16:17:58.360Z,83.10
2018-12-24T16:20:28.850Z,82.80
2018-12-24T16:23:01.452Z,83.46
2018-12-24T16:25:31.792Z,83.21
2018-12-24T16:28:02.111Z,82.83
2018-12-24T16:30:32.523Z,83.25
2018-12-24T16:33:23.343Z,84.67
2018-12-24T16:35:53.678Z,84.05
2018-12-24T16:38:26.617Z,83.82
2018-12-24T16:41:18.233Z,84.55
2018-12-24T16:46:43.263Z,85.86
2018-12-24T16:49:13.615Z,86.41
2018-12-24T16:51:44.044Z,85.92
2018-12-24T16:54:33.835Z,86.51
2018-12-24T17:02:43.723Z,86.76
2018-12-24T17:05:34.771Z,87.05
2018-12-24T17:08:05.291Z,87.06
2018-12-24T17:10:46.925Z,88.28
2018-12-24T17:13:17.497Z,87.75
2018-12-24T17:16:07.013Z,88.02
2018-12-24T17:24:31.099Z,89.37
2018-12-24T17:27:01.643Z,89.70
2018-12-24T17:29:32.023Z,89.46
2018-12-24T17:32:04.620Z,89.59
2018-12-24T17:34:55.721Z,89.73
2018-12-24T17:37:31.913Z,90.20
2018-12-24T17:40:03.709Z,90.56
2018-12-24T17:42:34.117Z,90.85
2018-12-24T17:51:01.461Z,91.80
2018-12-24T17:53:31.843Z,92.89
2018-12-24T17:56:02.148Z,92.68
2018-12-24T17:58:32.536Z,92.30
2018-12-24T18:01:02.961Z,93.08
2018-12-24T18:06:35.946Z,93.45
2018-12-24T18:12:10.685Z,93.55
2018-12-24T18:14:41.173Z,92.20
2018-12-24T18:17:11.675Z,92.61
2018-12-24T18:19:42.072Z,92.70
2018-12-24T18:22:12.507Z,93.03
2018-12-24T18:24:42.853Z,94.18
2018-12-24T18:27:13.281Z,94.23
2018-12-24T18:30:02.547Z,94.95
2018-12-24T18:32:44.208Z,95.37
2018-12-24T18:35:14.578Z,96.56
2018-12-24T18:37:45.018Z,96.00
2018-12-24T18:40:26.863Z,96.39
2018-12-24T18:42:57.216Z,96.36
2018-12-24T18:45:48.044Z,97.18
2018-12-24T18:48:18.425Z,97.10
2018-12-24T18:51:07.789Z,97.30
2018-12-24T18:53:38.212Z,97.08
2018-12-24T18:56:08.686Z,97.60
2018-12-24T18:58:39.059Z,98.17
2018-12-24T19:01:09.612Z,99.01
2018-12-24T19:03:40.231Z,98.95
2018-12-24T19:06:10.604Z,99.48
2018-12-24T19:08:41.435Z,99.76
2018-12-24T19:11:33.212Z,99.91
2018-12-24T19:17:24.904Z,100.00
2018-12-24T19:19:55.744Z,100.00
2018-12-24T19:22:26.122Z,100.00
2018-12-24T19:24:56.976Z,100.00
2018-12-24T19:27:27.322Z,100.00
2018-12-24T19:30:20.983Z,100.00
2018-12-24T19:32:51.410Z,100.00
2018-12-24T19:35:21.777Z,100.00
2018-12-24T19:37:52.255Z,100.00
2018-12-24T19:43:24.957Z,100.00
2018-12-24T19:46:16.178Z,100.00
2018-12-24T19:48:46.648Z,100.00
2018-12-24T19:54:38.573Z,100.00
2018-12-24T19:57:09.047Z,100.00
2018-12-24T19:59:39.536Z,100.00
2018-12-24T20:02:09.865Z,100.00
2018-12-24T20:07:43.273Z,100.00
2018-12-24T20:10:14.057Z,100.00
2018-12-24T20:12:44.608Z,100.00
2018-12-24T20:15:15.094Z,100.00
2018-12-24T20:20:48.307Z,100.00
2018-12-24T20:23:18.806Z,100.00
2018-12-24T20:25:49.212Z,100.00
2018-12-24T20:28:19.571Z,100.00
2018-12-24T20:30:50.001Z,100.00
2018-12-24T20:33:20.505Z,100.00
2018-12-24T20:53:28.647Z,100.00
2018-12-24T20:55:59.372Z,100.00
2018-12-24T20:58:29.799Z,100.00
2018-12-24T21:01:00.220Z,100.00
2018-12-24T21:03:49.889Z,100.00
2018-12-24T21:06:21.841Z,100.00
2018-12-24T21:08:52.323Z,100.00
2018-12-24T21:11:22.773Z,100.00
2018-12-24T21:13:53.160Z,100.00
2018-12-24T21:16:44.304Z,100.00
2018-12-24T21:19:14.695Z,100.00
2018-12-24T21:22:04.667Z,100.00
2018-12-24T21:30:19.666Z,100.00
2018-12-24T21:32:50.157Z,100.00
2018-12-24T21:38:24.212Z,100.00
2018-12-24T21:40:54.978Z,100.00
2018-12-24T21:43:25.626Z,100.00
2018-12-24T21:46:16.578Z,100.00
2018-12-24T21:48:47.118Z,100.00
2018-12-24T21:51:56.958Z,100.00
2018-12-24T21:54:27.503Z,100.00
2018-12-24T21:56:58.039Z,100.00
2018-12-24T21:59:28.801Z,100.00
2018-12-24T22:02:18.030Z,100.00
2018-12-24T22:04:48.600Z,100.00
2018-12-24T22:07:38.238Z,100.00
2018-12-24T22:10:08.805Z,100.00
2018-12-24T22:12:39.220Z,100.00
2018-12-24T22:15:09.668Z,100.00
2018-12-24T22:18:00.815Z,100.00
2018-12-24T22:26:02.739Z,100.00
2018-12-24T22:28:45.145Z,100.00
2018-12-24T22:31:15.629Z,100.00
2018-12-24T22:33:46.165Z,100.00
2018-12-24T22:36:16.587Z,100.00
2018-12-24T22:38:47.072Z,100.00
2018-12-24T22:41:17.649Z,100.00
2018-12-24T22:43:48.600Z,100.00
2018-12-24T22:46:39.949Z,100.00
2018-12-24T22:49:30.038Z,100.00
2018-12-24T22:52:12.271Z,100.00
2018-12-24T22:54:42.692Z,100.00
2018-12-24T22:57:13.207Z,100.00
2018-12-24T22:59:43.754Z,100.00
2018-12-24T23:02:34.680Z,100.00
2018-12-24T23:05:05.155Z,100.00
2018-12-24T23:10:16.126Z,100.00
2018-12-24T23:15:37.284Z,100.00
2018-12-24T23:18:09.691Z,100.00
2018-12-24T23:26:31.624Z,100.00
2018-12-24T23:29:03.736Z,100.00
2018-12-24T23:31:34.150Z,100.00
2018-12-24T23:34:04.652Z,100.00
2018-12-24T23:36:35.117Z,100.00
2018-12-24T23:39:46.207Z,100.00
2018-12-24T23:42:24.108Z,100.00
2018-12-24T23:47:57.217Z,100.00
2018-12-24T23:50:39.350Z,100.00
2018-12-24T23:53:09.744Z,100.00
2018-12-24T23:56:00.731Z,100.00
2018-12-24T23:58:50.043Z,100.00
